sensor_id;sensor_type;location;lat;lon;timestamp;P1;durP1;ratioP1;P2;durP2;ratioP2
8297;SDS011;4187;42.778;23.242;2023-02-12T00:01:13;17.40;;;12.70;;
8297;SDS011;4187;42.778;23.242;2023-02-12T00:03:40;18.63;;;12.90;;
8297;SDS011;4187;42.778;23.242;2023-02-12T00:06:08;20.97;;;14.90;;
8297;SDS011;4187;42.778;23.242;2023-02-12T00:08:36;35.13;;;22.40;;
8297;SDS011;4187;42.778;23.242;2023-02-12T00:11:07;18.00;;;13.03;;
8297;SDS011;4187;42.778;23.242;2023-02-12T00:13:37;20.70;;;14.03;;
8297;SDS011;4187;42.778;23.242;2023-02-12T00:16:05;21.47;;;14.47;;
8297;SDS011;4187;42.778;23.242;2023-02-12T00:18:33;19.03;;;12.73;;
8297;SDS011;4187;42.778;23.242;2023-02-12T00:21:00;15.97;;;11.97;;
8297;SDS011;4187;42.778;23.242;2023-02-12T00:23:27;20.37;;;12.23;;
8297;SDS011;4187;42.778;23.242;2023-02-12T00:25:54;21.17;;;13.23;;
8297;SDS011;4187;42.778;23.242;2023-02-12T00:28:23;18.53;;;11.70;;
8297;SDS011;4187;42.778;23.242;2023-02-12T00:30:52;14.57;;;10.97;;
8297;SDS011;4187;42.778;23.242;2023-02-12T00:33:19;16.27;;;11.93;;
8297;SDS011;4187;42.778;23.242;2023-02-12T00:35:53;18.97;;;12.90;;
8297;SDS011;4187;42.778;23.242;2023-02-12T00:38:21;20.53;;;13.30;;
8297;SDS011;4187;42.778;23.242;2023-02-12T00:40:47;15.80;;;11.60;;
8297;SDS011;4187;42.778;23.242;2023-02-12T00:43:14;17.73;;;12.13;;
8297;SDS011;4187;42.778;23.242;2023-02-12T00:45:41;15.83;;;12.03;;
8297;SDS011;4187;42.778;23.242;2023-02-12T00:48:11;17.57;;;11.83;;
8297;SDS011;4187;42.778;23.242;2023-02-12T00:50:39;17.30;;;11.50;;
8297;SDS011;4187;42.778;23.242;2023-02-12T00:53:06;14.37;;;10.83;;
8297;SDS011;4187;42.778;23.242;2023-02-12T00:55:33;16.73;;;11.43;;
8297;SDS011;4187;42.778;23.242;2023-02-12T00:58:00;17.03;;;10.07;;
8297;SDS011;4187;42.778;23.242;2023-02-12T01:00:27;14.27;;;10.47;;
8297;SDS011;4187;42.778;23.242;2023-02-12T01:02:54;16.83;;;11.00;;
8297;SDS011;4187;42.778;23.242;2023-02-12T01:05:22;14.77;;;10.80;;
8297;SDS011;4187;42.778;23.242;2023-02-12T01:07:49;16.87;;;11.20;;
8297;SDS011;4187;42.778;23.242;2023-02-12T01:10:16;15.37;;;10.73;;
8297;SDS011;4187;42.778;23.242;2023-02-12T01:12:44;17.10;;;11.00;;
8297;SDS011;4187;42.778;23.242;2023-02-12T01:15:12;16.20;;;11.27;;
8297;SDS011;4187;42.778;23.242;2023-02-12T01:17:39;17.30;;;11.73;;
8297;SDS011;4187;42.778;23.242;2023-02-12T01:20:07;19.90;;;12.50;;
8297;SDS011;4187;42.778;23.242;2023-02-12T01:22:37;19.10;;;11.77;;
8297;SDS011;4187;42.778;23.242;2023-02-12T01:25:05;16.60;;;12.10;;
8297;SDS011;4187;42.778;23.242;2023-02-12T01:27:32;18.20;;;12.43;;
8297;SDS011;4187;42.778;23.242;2023-02-12T01:29:59;17.30;;;12.20;;
8297;SDS011;4187;42.778;23.242;2023-02-12T01:32:26;18.50;;;12.83;;
8297;SDS011;4187;42.778;23.242;2023-02-12T01:34:53;18.63;;;12.43;;
8297;SDS011;4187;42.778;23.242;2023-02-12T01:37:20;22.13;;;14.97;;
8297;SDS011;4187;42.778;23.242;2023-02-12T01:39:48;15.40;;;11.87;;
8297;SDS011;4187;42.778;23.242;2023-02-12T01:42:15;19.47;;;12.50;;
8297;SDS011;4187;42.778;23.242;2023-02-12T01:44:43;18.53;;;12.60;;
8297;SDS011;4187;42.778;23.242;2023-02-12T01:47:13;19.33;;;12.80;;
8297;SDS011;4187;42.778;23.242;2023-02-12T01:49:43;19.90;;;13.67;;
8297;SDS011;4187;42.778;23.242;2023-02-12T01:52:14;19.10;;;12.67;;
8297;SDS011;4187;42.778;23.242;2023-02-12T01:54:45;15.73;;;11.77;;
8297;SDS011;4187;42.778;23.242;2023-02-12T01:57:15;19.33;;;13.53;;
8297;SDS011;4187;42.778;23.242;2023-02-12T01:59:43;21.90;;;14.43;;
8297;SDS011;4187;42.778;23.242;2023-02-12T02:02:14;16.97;;;12.83;;
8297;SDS011;4187;42.778;23.242;2023-02-12T02:04:42;24.00;;;14.43;;
8297;SDS011;4187;42.778;23.242;2023-02-12T02:07:13;18.03;;;13.37;;
8297;SDS011;4187;42.778;23.242;2023-02-12T02:09:40;19.57;;;15.00;;
8297;SDS011;4187;42.778;23.242;2023-02-12T02:12:08;19.30;;;13.03;;
8297;SDS011;4187;42.778;23.242;2023-02-12T02:14:55;19.37;;;13.83;;
8297;SDS011;4187;42.778;23.242;2023-02-12T02:17:33;22.00;;;13.50;;
8297;SDS011;4187;42.778;23.242;2023-02-12T02:23:28;23.80;;;15.93;;
8297;SDS011;4187;42.778;23.242;2023-02-12T02:26:27;23.27;;;17.17;;
8297;SDS011;4187;42.778;23.242;2023-02-12T02:29:19;19.90;;;14.33;;
8297;SDS011;4187;42.778;23.242;2023-02-12T02:32:06;20.63;;;14.30;;
8297;SDS011;4187;42.778;23.242;2023-02-12T02:34:38;20.53;;;14.07;;
8297;SDS011;4187;42.778;23.242;2023-02-12T02:37:13;23.50;;;14.73;;
8297;SDS011;4187;42.778;23.242;2023-02-12T02:39:46;23.17;;;16.80;;
8297;SDS011;4187;42.778;23.242;2023-02-12T02:42:16;24.67;;;16.50;;
8297;SDS011;4187;42.778;23.242;2023-02-12T02:44:49;23.80;;;16.57;;
8297;SDS011;4187;42.778;23.242;2023-02-12T02:47:20;23.40;;;16.50;;
8297;SDS011;4187;42.778;23.242;2023-02-12T02:49:56;30.30;;;18.43;;
8297;SDS011;4187;42.778;23.242;2023-02-12T02:52:29;23.90;;;17.07;;
8297;SDS011;4187;42.778;23.242;2023-02-12T02:55:02;24.27;;;17.23;;
8297;SDS011;4187;42.778;23.242;2023-02-12T02:57:34;25.33;;;17.33;;
8297;SDS011;4187;42.778;23.242;2023-02-12T03:00:06;20.97;;;15.80;;
8297;SDS011;4187;42.778;23.242;2023-02-12T03:02:41;25.13;;;16.30;;
8297;SDS011;4187;42.778;23.242;2023-02-12T03:05:13;21.67;;;14.37;;
8297;SDS011;4187;42.778;23.242;2023-02-12T03:07:45;20.07;;;14.53;;
8297;SDS011;4187;42.778;23.242;2023-02-12T03:10:17;17.57;;;13.50;;
8297;SDS011;4187;42.778;23.242;2023-02-12T03:12:50;18.13;;;13.50;;
8297;SDS011;4187;42.778;23.242;2023-02-12T03:15:20;20.17;;;15.20;;
8297;SDS011;4187;42.778;23.242;2023-02-12T03:17:55;21.17;;;14.97;;
8297;SDS011;4187;42.778;23.242;2023-02-12T03:20:25;25.63;;;16.17;;
8297;SDS011;4187;42.778;23.242;2023-02-12T03:22:57;23.73;;;18.10;;
8297;SDS011;4187;42.778;23.242;2023-02-12T03:25:29;22.63;;;16.30;;
8297;SDS011;4187;42.778;23.242;2023-02-12T03:28:01;21.93;;;15.60;;
8297;SDS011;4187;42.778;23.242;2023-02-12T03:30:33;18.30;;;14.37;;
8297;SDS011;4187;42.778;23.242;2023-02-12T03:33:11;21.40;;;14.50;;
8297;SDS011;4187;42.778;23.242;2023-02-12T03:35:48;19.67;;;14.03;;
8297;SDS011;4187;42.778;23.242;2023-02-12T03:38:22;21.00;;;14.33;;
8297;SDS011;4187;42.778;23.242;2023-02-12T03:40:57;21.20;;;14.03;;
8297;SDS011;4187;42.778;23.242;2023-02-12T03:43:31;22.63;;;14.53;;
8297;SDS011;4187;42.778;23.242;2023-02-12T03:46:03;22.10;;;15.07;;
8297;SDS011;4187;42.778;23.242;2023-02-12T03:48:41;17.87;;;13.73;;
8297;SDS011;4187;42.778;23.242;2023-02-12T03:51:14;21.57;;;14.57;;
8297;SDS011;4187;42.778;23.242;2023-02-12T03:53:47;18.13;;;13.83;;
8297;SDS011;4187;42.778;23.242;2023-02-12T03:56:16;27.27;;;18.07;;
8297;SDS011;4187;42.778;23.242;2023-02-12T03:58:47;24.13;;;18.73;;
8297;SDS011;4187;42.778;23.242;2023-02-12T04:01:14;26.13;;;19.13;;
8297;SDS011;4187;42.778;23.242;2023-02-12T04:03:42;21.43;;;15.93;;
8297;SDS011;4187;42.778;23.242;2023-02-12T04:06:19;19.40;;;15.67;;
8297;SDS011;4187;42.778;23.242;2023-02-12T04:08:47;21.23;;;15.53;;
8297;SDS011;4187;42.778;23.242;2023-02-12T04:11:19;20.97;;;15.63;;
8297;SDS011;4187;42.778;23.242;2023-02-12T04:13:53;21.57;;;14.87;;
8297;SDS011;4187;42.778;23.242;2023-02-12T04:16:34;26.80;;;18.80;;
8297;SDS011;4187;42.778;23.242;2023-02-12T04:19:08;24.43;;;17.83;;
8297;SDS011;4187;42.778;23.242;2023-02-12T04:21:42;24.70;;;16.40;;
8297;SDS011;4187;42.778;23.242;2023-02-12T04:24:17;21.10;;;15.67;;
8297;SDS011;4187;42.778;23.242;2023-02-12T04:26:51;21.17;;;16.23;;
8297;SDS011;4187;42.778;23.242;2023-02-12T04:29:24;23.43;;;16.20;;
8297;SDS011;4187;42.778;23.242;2023-02-12T04:31:57;20.23;;;14.40;;
8297;SDS011;4187;42.778;23.242;2023-02-12T04:34:33;23.00;;;17.07;;
8297;SDS011;4187;42.778;23.242;2023-02-12T04:37:05;23.47;;;17.43;;
8297;SDS011;4187;42.778;23.242;2023-02-12T04:39:37;24.27;;;17.20;;
8297;SDS011;4187;42.778;23.242;2023-02-12T04:42:07;18.07;;;14.40;;
8297;SDS011;4187;42.778;23.242;2023-02-12T04:44:37;17.47;;;13.37;;
8297;SDS011;4187;42.778;23.242;2023-02-12T04:47:05;19.63;;;13.97;;
8297;SDS011;4187;42.778;23.242;2023-02-12T04:49:33;19.03;;;13.63;;
8297;SDS011;4187;42.778;23.242;2023-02-12T04:52:00;22.33;;;15.63;;
8297;SDS011;4187;42.778;23.242;2023-02-12T04:54:27;21.53;;;14.93;;
8297;SDS011;4187;42.778;23.242;2023-02-12T04:56:53;20.80;;;15.47;;
8297;SDS011;4187;42.778;23.242;2023-02-12T04:59:20;20.77;;;15.40;;
8297;SDS011;4187;42.778;23.242;2023-02-12T05:01:47;18.43;;;13.63;;
8297;SDS011;4187;42.778;23.242;2023-02-12T05:04:14;21.23;;;13.83;;
8297;SDS011;4187;42.778;23.242;2023-02-12T05:06:44;17.60;;;13.27;;
8297;SDS011;4187;42.778;23.242;2023-02-12T05:09:12;21.43;;;14.63;;
8297;SDS011;4187;42.778;23.242;2023-02-12T05:11:41;21.50;;;14.93;;
8297;SDS011;4187;42.778;23.242;2023-02-12T05:14:08;18.10;;;12.50;;
8297;SDS011;4187;42.778;23.242;2023-02-12T05:16:35;18.17;;;13.33;;
8297;SDS011;4187;42.778;23.242;2023-02-12T05:19:02;22.63;;;13.80;;
8297;SDS011;4187;42.778;23.242;2023-02-12T05:21:28;16.20;;;12.97;;
8297;SDS011;4187;42.778;23.242;2023-02-12T05:23:57;21.23;;;15.63;;
8297;SDS011;4187;42.778;23.242;2023-02-12T05:26:23;18.23;;;13.80;;
8297;SDS011;4187;42.778;23.242;2023-02-12T05:28:50;21.70;;;14.33;;
8297;SDS011;4187;42.778;23.242;2023-02-12T05:31:17;24.27;;;15.27;;
8297;SDS011;4187;42.778;23.242;2023-02-12T05:33:46;20.30;;;14.37;;
8297;SDS011;4187;42.778;23.242;2023-02-12T05:36:14;19.63;;;14.50;;
8297;SDS011;4187;42.778;23.242;2023-02-12T05:38:42;21.37;;;14.47;;
8297;SDS011;4187;42.778;23.242;2023-02-12T05:41:11;16.70;;;12.23;;
8297;SDS011;4187;42.778;23.242;2023-02-12T05:43:40;17.63;;;13.13;;
8297;SDS011;4187;42.778;23.242;2023-02-12T05:46:07;17.93;;;12.97;;
8297;SDS011;4187;42.778;23.242;2023-02-12T05:48:36;18.90;;;14.70;;
8297;SDS011;4187;42.778;23.242;2023-02-12T05:51:03;22.23;;;14.40;;
8297;SDS011;4187;42.778;23.242;2023-02-12T05:53:31;20.37;;;14.90;;
8297;SDS011;4187;42.778;23.242;2023-02-12T05:56:06;23.17;;;15.67;;
8297;SDS011;4187;42.778;23.242;2023-02-12T05:58:36;24.03;;;16.77;;
8297;SDS011;4187;42.778;23.242;2023-02-12T06:01:07;20.97;;;15.67;;
8297;SDS011;4187;42.778;23.242;2023-02-12T06:03:35;19.07;;;14.07;;
8297;SDS011;4187;42.778;23.242;2023-02-12T06:06:02;21.20;;;13.40;;
8297;SDS011;4187;42.778;23.242;2023-02-12T06:08:29;20.03;;;13.83;;
8297;SDS011;4187;42.778;23.242;2023-02-12T06:10:58;17.47;;;13.63;;
8297;SDS011;4187;42.778;23.242;2023-02-12T06:13:26;20.83;;;14.53;;
8297;SDS011;4187;42.778;23.242;2023-02-12T06:15:54;26.43;;;17.97;;
8297;SDS011;4187;42.778;23.242;2023-02-12T06:18:21;23.67;;;16.80;;
8297;SDS011;4187;42.778;23.242;2023-02-12T06:20:48;22.63;;;16.67;;
8297;SDS011;4187;42.778;23.242;2023-02-12T06:23:15;25.83;;;17.47;;
8297;SDS011;4187;42.778;23.242;2023-02-12T06:25:42;20.63;;;15.53;;
8297;SDS011;4187;42.778;23.242;2023-02-12T06:28:08;21.47;;;15.77;;
8297;SDS011;4187;42.778;23.242;2023-02-12T06:30:35;20.37;;;15.50;;
8297;SDS011;4187;42.778;23.242;2023-02-12T06:33:03;20.33;;;14.07;;
8297;SDS011;4187;42.778;23.242;2023-02-12T06:35:30;21.67;;;15.10;;
8297;SDS011;4187;42.778;23.242;2023-02-12T06:37:59;20.07;;;14.47;;
8297;SDS011;4187;42.778;23.242;2023-02-12T06:40:26;17.03;;;13.30;;
8297;SDS011;4187;42.778;23.242;2023-02-12T06:42:53;23.53;;;14.30;;
8297;SDS011;4187;42.778;23.242;2023-02-12T06:45:20;19.23;;;13.83;;
8297;SDS011;4187;42.778;23.242;2023-02-12T06:47:47;22.57;;;14.90;;
8297;SDS011;4187;42.778;23.242;2023-02-12T06:50:15;18.20;;;13.87;;
8297;SDS011;4187;42.778;23.242;2023-02-12T06:52:42;24.17;;;14.63;;
8297;SDS011;4187;42.778;23.242;2023-02-12T06:55:09;19.13;;;13.73;;
8297;SDS011;4187;42.778;23.242;2023-02-12T06:57:36;19.13;;;13.53;;
8297;SDS011;4187;42.778;23.242;2023-02-12T07:00:03;20.00;;;14.67;;
8297;SDS011;4187;42.778;23.242;2023-02-12T07:02:31;18.83;;;13.73;;
8297;SDS011;4187;42.778;23.242;2023-02-12T07:04:58;18.73;;;14.20;;
8297;SDS011;4187;42.778;23.242;2023-02-12T07:07:26;20.40;;;13.40;;
8297;SDS011;4187;42.778;23.242;2023-02-12T07:09:53;18.43;;;13.13;;
8297;SDS011;4187;42.778;23.242;2023-02-12T07:12:20;19.10;;;13.43;;
8297;SDS011;4187;42.778;23.242;2023-02-12T07:14:47;19.97;;;13.93;;
8297;SDS011;4187;42.778;23.242;2023-02-12T07:17:14;17.97;;;13.83;;
8297;SDS011;4187;42.778;23.242;2023-02-12T07:19:40;21.47;;;15.27;;
8297;SDS011;4187;42.778;23.242;2023-02-12T07:22:07;18.60;;;14.43;;
8297;SDS011;4187;42.778;23.242;2023-02-12T07:24:35;30.30;;;17.53;;
8297;SDS011;4187;42.778;23.242;2023-02-12T07:27:03;24.00;;;16.67;;
8297;SDS011;4187;42.778;23.242;2023-02-12T07:29:30;27.77;;;17.87;;
8297;SDS011;4187;42.778;23.242;2023-02-12T07:31:56;22.47;;;17.23;;
8297;SDS011;4187;42.778;23.242;2023-02-12T07:34:23;22.30;;;16.23;;
8297;SDS011;4187;42.778;23.242;2023-02-12T07:36:50;23.00;;;14.50;;
8297;SDS011;4187;42.778;23.242;2023-02-12T07:39:17;20.90;;;14.50;;
8297;SDS011;4187;42.778;23.242;2023-02-12T07:41:45;33.43;;;15.33;;
8297;SDS011;4187;42.778;23.242;2023-02-12T07:44:12;25.03;;;15.17;;
8297;SDS011;4187;42.778;23.242;2023-02-12T07:46:40;21.20;;;13.87;;
8297;SDS011;4187;42.778;23.242;2023-02-12T07:49:10;23.47;;;15.23;;
8297;SDS011;4187;42.778;23.242;2023-02-12T07:51:39;19.13;;;13.40;;
8297;SDS011;4187;42.778;23.242;2023-02-12T07:54:06;15.73;;;12.07;;
8297;SDS011;4187;42.778;23.242;2023-02-12T07:56:34;16.60;;;12.80;;
8297;SDS011;4187;42.778;23.242;2023-02-12T07:59:04;22.53;;;14.07;;
8297;SDS011;4187;42.778;23.242;2023-02-12T08:01:33;21.37;;;14.10;;
8297;SDS011;4187;42.778;23.242;2023-02-12T08:04:02;17.47;;;13.50;;
8297;SDS011;4187;42.778;23.242;2023-02-12T08:06:30;21.07;;;14.37;;
8297;SDS011;4187;42.778;23.242;2023-02-12T08:08:58;24.47;;;15.63;;
8297;SDS011;4187;42.778;23.242;2023-02-12T08:11:27;21.03;;;15.03;;
8297;SDS011;4187;42.778;23.242;2023-02-12T08:13:55;21.80;;;16.43;;
8297;SDS011;4187;42.778;23.242;2023-02-12T08:16:24;19.93;;;15.90;;
8297;SDS011;4187;42.778;23.242;2023-02-12T08:18:53;22.63;;;15.30;;
8297;SDS011;4187;42.778;23.242;2023-02-12T08:21:21;21.90;;;15.93;;
8297;SDS011;4187;42.778;23.242;2023-02-12T08:23:50;21.60;;;15.57;;
8297;SDS011;4187;42.778;23.242;2023-02-12T08:26:21;24.00;;;18.10;;
8297;SDS011;4187;42.778;23.242;2023-02-12T08:28:51;24.23;;;18.93;;
8297;SDS011;4187;42.778;23.242;2023-02-12T08:31:20;24.40;;;18.47;;
8297;SDS011;4187;42.778;23.242;2023-02-12T08:33:50;19.17;;;16.43;;
8297;SDS011;4187;42.778;23.242;2023-02-12T08:36:19;19.50;;;15.13;;
8297;SDS011;4187;42.778;23.242;2023-02-12T08:38:48;17.60;;;15.40;;
8297;SDS011;4187;42.778;23.242;2023-02-12T08:41:16;26.10;;;18.83;;
8297;SDS011;4187;42.778;23.242;2023-02-12T08:43:45;29.27;;;21.53;;
8297;SDS011;4187;42.778;23.242;2023-02-12T08:46:13;26.43;;;19.20;;
8297;SDS011;4187;42.778;23.242;2023-02-12T08:48:42;26.07;;;19.27;;
8297;SDS011;4187;42.778;23.242;2023-02-12T08:51:11;30.07;;;20.97;;
8297;SDS011;4187;42.778;23.242;2023-02-12T08:53:40;29.37;;;20.93;;
8297;SDS011;4187;42.778;23.242;2023-02-12T08:56:09;26.83;;;19.83;;
8297;SDS011;4187;42.778;23.242;2023-02-12T08:58:37;26.40;;;20.37;;
8297;SDS011;4187;42.778;23.242;2023-02-12T09:01:04;25.70;;;19.20;;
8297;SDS011;4187;42.778;23.242;2023-02-12T09:03:35;30.67;;;21.93;;
8297;SDS011;4187;42.778;23.242;2023-02-12T09:06:03;25.80;;;19.60;;
8297;SDS011;4187;42.778;23.242;2023-02-12T09:08:31;34.97;;;24.60;;
8297;SDS011;4187;42.778;23.242;2023-02-12T09:10:58;36.37;;;27.47;;
8297;SDS011;4187;42.778;23.242;2023-02-12T09:13:29;38.40;;;29.27;;
8297;SDS011;4187;42.778;23.242;2023-02-12T09:15:55;26.93;;;22.10;;
8297;SDS011;4187;42.778;23.242;2023-02-12T09:18:22;35.43;;;23.27;;
8297;SDS011;4187;42.778;23.242;2023-02-12T09:20:49;24.40;;;18.47;;
8297;SDS011;4187;42.778;23.242;2023-02-12T09:23:16;31.43;;;18.60;;
8297;SDS011;4187;42.778;23.242;2023-02-12T09:25:44;22.20;;;17.63;;
8297;SDS011;4187;42.778;23.242;2023-02-12T09:28:13;25.33;;;18.67;;
8297;SDS011;4187;42.778;23.242;2023-02-12T09:30:40;25.93;;;18.03;;
8297;SDS011;4187;42.778;23.242;2023-02-12T09:33:08;25.90;;;19.47;;
8297;SDS011;4187;42.778;23.242;2023-02-12T09:35:36;25.40;;;18.63;;
8297;SDS011;4187;42.778;23.242;2023-02-12T09:38:03;61.23;;;35.33;;
8297;SDS011;4187;42.778;23.242;2023-02-12T09:40:32;23.63;;;18.20;;
8297;SDS011;4187;42.778;23.242;2023-02-12T09:43:13;25.33;;;17.10;;
8297;SDS011;4187;42.778;23.242;2023-02-12T09:45:45;24.00;;;18.27;;
8297;SDS011;4187;42.778;23.242;2023-02-12T09:48:25;44.50;;;30.37;;
8297;SDS011;4187;42.778;23.242;2023-02-12T09:51:08;27.80;;;21.93;;
8297;SDS011;4187;42.778;23.242;2023-02-12T09:53:36;24.87;;;19.20;;
8297;SDS011;4187;42.778;23.242;2023-02-12T09:56:11;28.00;;;20.73;;
8297;SDS011;4187;42.778;23.242;2023-02-12T09:58:42;22.80;;;17.70;;
8297;SDS011;4187;42.778;23.242;2023-02-12T10:01:13;24.73;;;19.90;;
8297;SDS011;4187;42.778;23.242;2023-02-12T10:03:42;21.43;;;16.73;;
8297;SDS011;4187;42.778;23.242;2023-02-12T10:06:11;26.80;;;18.30;;
8297;SDS011;4187;42.778;23.242;2023-02-12T10:11:48;28.33;;;21.00;;
8297;SDS011;4187;42.778;23.242;2023-02-12T10:17:43;29.43;;;20.90;;
8297;SDS011;4187;42.778;23.242;2023-02-12T10:23:15;31.33;;;19.00;;
8297;SDS011;4187;42.778;23.242;2023-02-12T10:25:54;24.97;;;20.17;;
8297;SDS011;4187;42.778;23.242;2023-02-12T10:28:23;22.87;;;18.70;;
8297;SDS011;4187;42.778;23.242;2023-02-12T10:30:53;24.50;;;19.20;;
8297;SDS011;4187;42.778;23.242;2023-02-12T10:33:27;30.67;;;21.47;;
8297;SDS011;4187;42.778;23.242;2023-02-12T10:35:58;31.37;;;21.00;;
8297;SDS011;4187;42.778;23.242;2023-02-12T10:38:29;23.70;;;17.50;;
8297;SDS011;4187;42.778;23.242;2023-02-12T10:41:01;28.40;;;20.80;;
8297;SDS011;4187;42.778;23.242;2023-02-12T10:43:28;25.93;;;19.17;;
8297;SDS011;4187;42.778;23.242;2023-02-12T10:45:55;22.87;;;17.90;;
8297;SDS011;4187;42.778;23.242;2023-02-12T10:48:24;24.70;;;20.30;;
8297;SDS011;4187;42.778;23.242;2023-02-12T10:51:03;34.90;;;23.17;;
8297;SDS011;4187;42.778;23.242;2023-02-12T10:53:55;27.87;;;20.30;;
8297;SDS011;4187;42.778;23.242;2023-02-12T10:56:22;31.67;;;21.13;;
8297;SDS011;4187;42.778;23.242;2023-02-12T10:58:52;27.27;;;19.47;;
8297;SDS011;4187;42.778;23.242;2023-02-12T11:01:21;24.37;;;18.80;;
8297;SDS011;4187;42.778;23.242;2023-02-12T11:03:53;22.97;;;17.17;;
8297;SDS011;4187;42.778;23.242;2023-02-12T11:06:21;35.00;;;24.93;;
8297;SDS011;4187;42.778;23.242;2023-02-12T11:08:50;26.20;;;18.53;;
8297;SDS011;4187;42.778;23.242;2023-02-12T11:11:18;27.83;;;20.60;;
8297;SDS011;4187;42.778;23.242;2023-02-12T11:13:52;23.20;;;17.33;;
8297;SDS011;4187;42.778;23.242;2023-02-12T11:16:27;22.27;;;18.30;;
8297;SDS011;4187;42.778;23.242;2023-02-12T11:19:01;23.67;;;17.33;;
8297;SDS011;4187;42.778;23.242;2023-02-12T11:21:30;28.20;;;20.07;;
8297;SDS011;4187;42.778;23.242;2023-02-12T11:24:02;21.37;;;17.33;;
8297;SDS011;4187;42.778;23.242;2023-02-12T11:26:47;29.60;;;21.77;;
8297;SDS011;4187;42.778;23.242;2023-02-12T11:29:18;22.00;;;17.93;;
8297;SDS011;4187;42.778;23.242;2023-02-12T11:31:58;21.80;;;17.47;;
8297;SDS011;4187;42.778;23.242;2023-02-12T11:34:27;24.77;;;19.60;;
8297;SDS011;4187;42.778;23.242;2023-02-12T11:36:55;23.50;;;18.37;;
8297;SDS011;4187;42.778;23.242;2023-02-12T11:39:23;19.93;;;15.97;;
8297;SDS011;4187;42.778;23.242;2023-02-12T11:41:53;23.13;;;18.43;;
8297;SDS011;4187;42.778;23.242;2023-02-12T11:44:22;24.00;;;18.47;;
8297;SDS011;4187;42.778;23.242;2023-02-12T11:46:53;24.40;;;18.07;;
8297;SDS011;4187;42.778;23.242;2023-02-12T11:49:28;25.03;;;18.40;;
8297;SDS011;4187;42.778;23.242;2023-02-12T11:51:56;23.90;;;19.10;;
8297;SDS011;4187;42.778;23.242;2023-02-12T11:54:27;26.27;;;19.17;;
8297;SDS011;4187;42.778;23.242;2023-02-12T11:56:56;28.47;;;21.03;;
8297;SDS011;4187;42.778;23.242;2023-02-12T11:59:26;26.43;;;20.97;;
8297;SDS011;4187;42.778;23.242;2023-02-12T12:02:00;24.73;;;18.90;;
8297;SDS011;4187;42.778;23.242;2023-02-12T12:04:33;23.87;;;19.10;;
8297;SDS011;4187;42.778;23.242;2023-02-12T12:07:02;23.50;;;17.70;;
8297;SDS011;4187;42.778;23.242;2023-02-12T12:09:38;22.93;;;17.43;;
8297;SDS011;4187;42.778;23.242;2023-02-12T12:12:09;23.67;;;19.33;;
8297;SDS011;4187;42.778;23.242;2023-02-12T12:14:41;24.20;;;20.40;;
8297;SDS011;4187;42.778;23.242;2023-02-12T12:17:36;22.87;;;18.63;;
8297;SDS011;4187;42.778;23.242;2023-02-12T12:20:26;25.27;;;18.63;;
8297;SDS011;4187;42.778;23.242;2023-02-12T12:22:58;22.57;;;18.20;;
8297;SDS011;4187;42.778;23.242;2023-02-12T12:25:29;24.67;;;18.47;;
8297;SDS011;4187;42.778;23.242;2023-02-12T12:28:04;25.40;;;18.73;;
8297;SDS011;4187;42.778;23.242;2023-02-12T12:30:47;26.33;;;19.20;;
8297;SDS011;4187;42.778;23.242;2023-02-12T12:33:25;25.17;;;20.47;;
8297;SDS011;4187;42.778;23.242;2023-02-12T12:36:05;26.23;;;19.57;;
8297;SDS011;4187;42.778;23.242;2023-02-12T12:38:45;24.00;;;19.10;;
8297;SDS011;4187;42.778;23.242;2023-02-12T12:41:21;25.67;;;20.53;;
8297;SDS011;4187;42.778;23.242;2023-02-12T12:43:55;26.83;;;19.70;;
8297;SDS011;4187;42.778;23.242;2023-02-12T12:46:49;23.70;;;18.30;;
8297;SDS011;4187;42.778;23.242;2023-02-12T12:49:33;26.70;;;20.53;;
8297;SDS011;4187;42.778;23.242;2023-02-12T12:52:18;25.47;;;19.70;;
8297;SDS011;4187;42.778;23.242;2023-02-12T12:55:21;30.80;;;22.77;;
8297;SDS011;4187;42.778;23.242;2023-02-12T12:58:04;25.40;;;19.70;;
8297;SDS011;4187;42.778;23.242;2023-02-12T13:00:40;23.07;;;18.43;;
8297;SDS011;4187;42.778;23.242;2023-02-12T13:03:27;23.63;;;19.57;;
8297;SDS011;4187;42.778;23.242;2023-02-12T13:09:25;24.00;;;18.77;;
8297;SDS011;4187;42.778;23.242;2023-02-12T13:12:09;32.07;;;23.73;;
8297;SDS011;4187;42.778;23.242;2023-02-12T13:14:48;28.97;;;21.17;;
8297;SDS011;4187;42.778;23.242;2023-02-12T13:17:22;26.00;;;20.40;;
8297;SDS011;4187;42.778;23.242;2023-02-12T13:19:58;25.27;;;19.90;;
8297;SDS011;4187;42.778;23.242;2023-02-12T13:22:34;29.03;;;20.37;;
8297;SDS011;4187;42.778;23.242;2023-02-12T13:25:14;25.30;;;19.23;;
8297;SDS011;4187;42.778;23.242;2023-02-12T13:27:47;25.53;;;19.53;;
8297;SDS011;4187;42.778;23.242;2023-02-12T13:30:17;32.87;;;20.77;;
8297;SDS011;4187;42.778;23.242;2023-02-12T13:32:48;24.33;;;18.30;;
8297;SDS011;4187;42.778;23.242;2023-02-12T13:35:20;27.17;;;18.57;;
8297;SDS011;4187;42.778;23.242;2023-02-12T13:37:50;24.80;;;18.37;;
8297;SDS011;4187;42.778;23.242;2023-02-12T13:40:23;22.90;;;17.60;;
8297;SDS011;4187;42.778;23.242;2023-02-12T13:42:52;25.80;;;18.90;;
8297;SDS011;4187;42.778;23.242;2023-02-12T13:45:28;32.00;;;21.83;;
8297;SDS011;4187;42.778;23.242;2023-02-12T13:48:17;25.27;;;19.97;;
8297;SDS011;4187;42.778;23.242;2023-02-12T13:50:53;25.50;;;18.23;;
8297;SDS011;4187;42.778;23.242;2023-02-12T13:53:29;21.17;;;17.30;;
8297;SDS011;4187;42.778;23.242;2023-02-12T13:56:14;21.30;;;17.87;;
8297;SDS011;4187;42.778;23.242;2023-02-12T13:58:53;20.30;;;17.20;;
8297;SDS011;4187;42.778;23.242;2023-02-12T14:04:15;25.47;;;18.97;;
8297;SDS011;4187;42.778;23.242;2023-02-12T14:06:53;32.40;;;22.27;;
8297;SDS011;4187;42.778;23.242;2023-02-12T14:09:23;25.90;;;19.37;;
8297;SDS011;4187;42.778;23.242;2023-02-12T14:11:58;23.50;;;18.33;;
8297;SDS011;4187;42.778;23.242;2023-02-12T14:14:27;24.43;;;17.90;;
8297;SDS011;4187;42.778;23.242;2023-02-12T14:16:56;23.53;;;19.00;;
8297;SDS011;4187;42.778;23.242;2023-02-12T14:19:42;25.47;;;19.23;;
8297;SDS011;4187;42.778;23.242;2023-02-12T14:25:44;23.33;;;19.47;;
8297;SDS011;4187;42.778;23.242;2023-02-12T14:28:19;24.43;;;18.93;;
8297;SDS011;4187;42.778;23.242;2023-02-12T14:33:48;27.00;;;21.10;;
8297;SDS011;4187;42.778;23.242;2023-02-12T14:36:17;28.13;;;22.00;;
8297;SDS011;4187;42.778;23.242;2023-02-12T14:39:04;26.70;;;22.47;;
8297;SDS011;4187;42.778;23.242;2023-02-12T14:41:52;25.57;;;21.60;;
8297;SDS011;4187;42.778;23.242;2023-02-12T14:47:13;30.93;;;21.93;;
8297;SDS011;4187;42.778;23.242;2023-02-12T14:50:12;24.30;;;19.10;;
8297;SDS011;4187;42.778;23.242;2023-02-12T14:52:43;25.90;;;20.47;;
8297;SDS011;4187;42.778;23.242;2023-02-12T14:55:18;26.53;;;20.83;;
8297;SDS011;4187;42.778;23.242;2023-02-12T14:57:48;24.47;;;21.53;;
8297;SDS011;4187;42.778;23.242;2023-02-12T15:00:22;26.33;;;22.00;;
8297;SDS011;4187;42.778;23.242;2023-02-12T15:02:53;27.80;;;21.97;;
8297;SDS011;4187;42.778;23.242;2023-02-12T15:05:24;23.37;;;20.27;;
8297;SDS011;4187;42.778;23.242;2023-02-12T15:07:58;30.60;;;23.67;;
8297;SDS011;4187;42.778;23.242;2023-02-12T15:10:28;29.73;;;22.70;;
8297;SDS011;4187;42.778;23.242;2023-02-12T15:13:01;30.47;;;25.27;;
8297;SDS011;4187;42.778;23.242;2023-02-12T15:15:41;30.17;;;26.17;;
8297;SDS011;4187;42.778;23.242;2023-02-12T15:18:16;27.37;;;23.00;;
8297;SDS011;4187;42.778;23.242;2023-02-12T15:20:53;36.23;;;26.47;;
8297;SDS011;4187;42.778;23.242;2023-02-12T15:23:35;31.93;;;23.53;;
8297;SDS011;4187;42.778;23.242;2023-02-12T15:26:05;31.23;;;25.60;;